KCGZ/CGZ METAR and TAF weather

Enter ICAO airport designator
Station Type Date Time Source
KCGZ METAR 2019/09/21 20:56 UTC NOAA

KCGZ 212056Z AUTO 30008KT 10SM CLR 33/03 A2987 RMK AO2 SLP101 T03280028 58021


Station Type Date Time Source
KCGZ Decoded METAR 2019/09/21 20:56 UTC NOAA

Casa Grande, Casa Grande Municipal Airport, AZ, United States (KCGZ) 32-57N 111-46W
Sep 21, 2019 - 04:56 PM EDT / 2019.09.21 2056 UTC
Wind: from the WNW (300 degrees) at 9 MPH (8 KT):0
Visibility: 10 mile(s):0
Sky conditions: clear
Temperature: 91.0 F (32.8 C)
Dew Point: 37.0 F (2.8 C)
Relative Humidity: 15%
Pressure (altimeter): 29.87 in. Hg (1011 hPa)
Pressure tendency: 0.06 inches (2.1 hPa) lower than three hours ago
ob: KCGZ 212056Z AUTO 30008KT 10SM CLR 33/03 A2987 RMK AO2 SLP101 T03280028 58021
cycle: 21

Station Type Date Time Source
KCGZ TAF UTC NOAA

Error!

Example: see airport list